sensor_id;sensor_type;location;lat;lon;timestamp;P1;durP1;ratioP1;P2;durP2;ratioP2
30462;SDS011;17256;43.618;25.336;2022-08-30T00:42:11;12.73;;;8.70;;
30462;SDS011;17256;43.618;25.336;2022-08-30T00:45:49;12.50;;;9.17;;
30462;SDS011;17256;43.618;25.336;2022-08-30T01:18:10;11.00;;;9.90;;
30462;SDS011;17256;43.618;25.336;2022-08-30T01:24:13;10.97;;;9.87;;
30462;SDS011;17256;43.618;25.336;2022-08-30T01:27:02;10.43;;;9.53;;
30462;SDS011;17256;43.618;25.336;2022-08-30T01:32:44;10.63;;;9.73;;
30462;SDS011;17256;43.618;25.336;2022-08-30T01:36:12;11.47;;;10.37;;
30462;SDS011;17256;43.618;25.336;2022-08-30T01:39:37;10.33;;;8.87;;
30462;SDS011;17256;43.618;25.336;2022-08-30T01:42:21;13.10;;;9.97;;
30462;SDS011;17256;43.618;25.336;2022-08-30T01:44:53;9.23;;;8.40;;
30462;SDS011;17256;43.618;25.336;2022-08-30T01:47:26;10.23;;;9.40;;
30462;SDS011;17256;43.618;25.336;2022-08-30T01:50:09;9.80;;;8.97;;
30462;SDS011;17256;43.618;25.336;2022-08-30T01:53:23;9.57;;;8.67;;
30462;SDS011;17256;43.618;25.336;2022-08-30T01:56:38;10.03;;;9.03;;
30462;SDS011;17256;43.618;25.336;2022-08-30T01:59:39;12.53;;;9.13;;
30462;SDS011;17256;43.618;25.336;2022-08-30T02:02:27;13.33;;;9.63;;
30462;SDS011;17256;43.618;25.336;2022-08-30T02:11:17;11.00;;;8.17;;
30462;SDS011;17256;43.618;25.336;2022-08-30T02:33:22;9.17;;;8.20;;
30462;SDS011;17256;43.618;25.336;2022-08-30T03:24:47;8.73;;;7.87;;
30462;SDS011;17256;43.618;25.336;2022-08-30T03:35:15;13.07;;;8.53;;
30462;SDS011;17256;43.618;25.336;2022-08-30T03:51:09;9.87;;;8.00;;
30462;SDS011;17256;43.618;25.336;2022-08-30T03:53:48;9.07;;;7.20;;
30462;SDS011;17256;43.618;25.336;2022-08-30T05:46:26;12.03;;;8.40;;
30462;SDS011;17256;43.618;25.336;2022-08-30T05:48:57;12.33;;;9.00;;
30462;SDS011;17256;43.618;25.336;2022-08-30T05:51:26;9.80;;;8.73;;
30462;SDS011;17256;43.618;25.336;2022-08-30T05:53:52;9.50;;;8.43;;
30462;SDS011;17256;43.618;25.336;2022-08-30T05:56:20;11.77;;;8.63;;
30462;SDS011;17256;43.618;25.336;2022-08-30T05:58:47;11.97;;;9.20;;
30462;SDS011;17256;43.618;25.336;2022-08-30T06:04:25;7.97;;;7.27;;
30462;SDS011;17256;43.618;25.336;2022-08-30T06:06:51;12.53;;;7.60;;
30462;SDS011;17256;43.618;25.336;2022-08-30T06:09:17;7.60;;;6.90;;
30462;SDS011;17256;43.618;25.336;2022-08-30T06:11:43;9.73;;;8.73;;
30462;SDS011;17256;43.618;25.336;2022-08-30T06:14:10;12.37;;;9.23;;
30462;SDS011;17256;43.618;25.336;2022-08-30T06:23:10;13.20;;;9.50;;
30462;SDS011;17256;43.618;25.336;2022-08-30T06:25:36;13.07;;;9.50;;
30462;SDS011;17256;43.618;25.336;2022-08-30T06:28:03;8.73;;;7.97;;
30462;SDS011;17256;43.618;25.336;2022-08-30T06:30:30;9.33;;;7.73;;
30462;SDS011;17256;43.618;25.336;2022-08-30T06:32:56;9.27;;;7.67;;
30462;SDS011;17256;43.618;25.336;2022-08-30T06:35:21;7.80;;;7.00;;
30462;SDS011;17256;43.618;25.336;2022-08-30T06:37:47;11.20;;;7.97;;
30462;SDS011;17256;43.618;25.336;2022-08-30T06:40:12;10.37;;;8.27;;
30462;SDS011;17256;43.618;25.336;2022-08-30T06:42:38;11.07;;;7.77;;
30462;SDS011;17256;43.618;25.336;2022-08-30T06:45:05;8.87;;;7.97;;
30462;SDS011;17256;43.618;25.336;2022-08-30T06:47:31;9.20;;;8.07;;
30462;SDS011;17256;43.618;25.336;2022-08-30T06:49:57;7.83;;;6.97;;
30462;SDS011;17256;43.618;25.336;2022-08-30T06:52:23;8.80;;;7.30;;
30462;SDS011;17256;43.618;25.336;2022-08-30T06:54:49;8.73;;;7.50;;
30462;SDS011;17256;43.618;25.336;2022-08-30T06:57:15;8.03;;;7.30;;
30462;SDS011;17256;43.618;25.336;2022-08-30T06:59:40;8.30;;;7.47;;
30462;SDS011;17256;43.618;25.336;2022-08-30T07:02:06;7.43;;;6.73;;
30462;SDS011;17256;43.618;25.336;2022-08-30T07:04:32;7.93;;;7.20;;
30462;SDS011;17256;43.618;25.336;2022-08-30T07:06:58;9.07;;;7.40;;
30462;SDS011;17256;43.618;25.336;2022-08-30T07:09:24;8.13;;;7.43;;
30462;SDS011;17256;43.618;25.336;2022-08-30T07:11:50;7.67;;;6.97;;
30462;SDS011;17256;43.618;25.336;2022-08-30T07:14:17;7.47;;;6.63;;
30462;SDS011;17256;43.618;25.336;2022-08-30T07:16:44;7.17;;;6.57;;
30462;SDS011;17256;43.618;25.336;2022-08-30T07:19:09;9.43;;;6.83;;
30462;SDS011;17256;43.618;25.336;2022-08-30T07:21:39;7.80;;;6.47;;
30462;SDS011;17256;43.618;25.336;2022-08-30T07:24:10;7.73;;;6.83;;
30462;SDS011;17256;43.618;25.336;2022-08-30T07:26:44;8.87;;;7.00;;
30462;SDS011;17256;43.618;25.336;2022-08-30T07:29:13;7.43;;;6.73;;
30462;SDS011;17256;43.618;25.336;2022-08-30T07:31:41;9.07;;;6.97;;
30462;SDS011;17256;43.618;25.336;2022-08-30T07:34:07;8.17;;;7.37;;
30462;SDS011;17256;43.618;25.336;2022-08-30T07:36:34;7.80;;;6.87;;
30462;SDS011;17256;43.618;25.336;2022-08-30T07:39:02;10.03;;;6.87;;
30462;SDS011;17256;43.618;25.336;2022-08-30T07:41:30;7.33;;;6.63;;
30462;SDS011;17256;43.618;25.336;2022-08-30T07:43:59;7.90;;;7.27;;
30462;SDS011;17256;43.618;25.336;2022-08-30T07:46:25;7.00;;;6.30;;
30462;SDS011;17256;43.618;25.336;2022-08-30T07:48:52;8.20;;;7.43;;
30462;SDS011;17256;43.618;25.336;2022-08-30T07:51:20;8.00;;;7.10;;
30462;SDS011;17256;43.618;25.336;2022-08-30T07:53:48;8.33;;;7.53;;
30462;SDS011;17256;43.618;25.336;2022-08-30T07:56:14;8.53;;;7.77;;
30462;SDS011;17256;43.618;25.336;2022-08-30T07:58:40;9.10;;;7.53;;
30462;SDS011;17256;43.618;25.336;2022-08-30T08:01:07;8.17;;;7.40;;
30462;SDS011;17256;43.618;25.336;2022-08-30T08:03:34;11.60;;;8.07;;
30462;SDS011;17256;43.618;25.336;2022-08-30T08:06:01;9.37;;;8.57;;
30462;SDS011;17256;43.618;25.336;2022-08-30T08:08:28;8.20;;;7.40;;
30462;SDS011;17256;43.618;25.336;2022-08-30T08:10:55;9.73;;;7.97;;
30462;SDS011;17256;43.618;25.336;2022-08-30T08:13:21;9.93;;;8.03;;
30462;SDS011;17256;43.618;25.336;2022-08-30T08:15:47;9.47;;;8.60;;
30462;SDS011;17256;43.618;25.336;2022-08-30T08:18:13;7.90;;;7.17;;
30462;SDS011;17256;43.618;25.336;2022-08-30T08:20:39;9.17;;;8.47;;
30462;SDS011;17256;43.618;25.336;2022-08-30T08:23:05;9.57;;;8.57;;
30462;SDS011;17256;43.618;25.336;2022-08-30T08:25:31;8.50;;;7.70;;
30462;SDS011;17256;43.618;25.336;2022-08-30T08:27:56;11.07;;;8.40;;
30462;SDS011;17256;43.618;25.336;2022-08-30T08:30:22;8.80;;;8.00;;
30462;SDS011;17256;43.618;25.336;2022-08-30T08:32:48;11.40;;;9.23;;
30462;SDS011;17256;43.618;25.336;2022-08-30T08:35:15;10.03;;;9.00;;
30462;SDS011;17256;43.618;25.336;2022-08-30T08:37:41;9.03;;;8.13;;
30462;SDS011;17256;43.618;25.336;2022-08-30T08:40:08;10.30;;;8.97;;
30462;SDS011;17256;43.618;25.336;2022-08-30T08:45:20;8.93;;;7.70;;
30462;SDS011;17256;43.618;25.336;2022-08-30T08:48:04;9.53;;;8.57;;
30462;SDS011;17256;43.618;25.336;2022-08-30T08:50:49;12.97;;;9.63;;
30462;SDS011;17256;43.618;25.336;2022-08-30T08:53:34;9.83;;;8.43;;
30462;SDS011;17256;43.618;25.336;2022-08-30T08:56:10;9.07;;;8.37;;
30462;SDS011;17256;43.618;25.336;2022-08-30T08:58:41;9.70;;;8.80;;
30462;SDS011;17256;43.618;25.336;2022-08-30T09:01:13;10.50;;;9.13;;
30462;SDS011;17256;43.618;25.336;2022-08-30T09:03:41;10.27;;;8.33;;
30462;SDS011;17256;43.618;25.336;2022-08-30T09:09:12;13.20;;;9.43;;
30462;SDS011;17256;43.618;25.336;2022-08-30T09:11:38;13.57;;;10.00;;
30462;SDS011;17256;43.618;25.336;2022-08-30T09:14:08;10.10;;;9.07;;
30462;SDS011;17256;43.618;25.336;2022-08-30T09:19:43;15.27;;;8.17;;
30462;SDS011;17256;43.618;25.336;2022-08-30T09:22:35;14.20;;;8.67;;
30462;SDS011;17256;43.618;25.336;2022-08-30T09:27:45;13.20;;;8.70;;
30462;SDS011;17256;43.618;25.336;2022-08-30T09:30:22;16.63;;;8.63;;
30462;SDS011;17256;43.618;25.336;2022-08-30T09:33:00;15.80;;;8.57;;
30462;SDS011;17256;43.618;25.336;2022-08-30T09:35:40;14.77;;;7.67;;
30462;SDS011;17256;43.618;25.336;2022-08-30T09:38:11;16.10;;;9.20;;
30462;SDS011;17256;43.618;25.336;2022-08-30T09:40:44;14.77;;;8.20;;
30462;SDS011;17256;43.618;25.336;2022-08-30T09:46:04;13.47;;;8.00;;
30462;SDS011;17256;43.618;25.336;2022-08-30T10:02:29;10.90;;;7.93;;
30462;SDS011;17256;43.618;25.336;2022-08-30T10:05:11;16.93;;;8.83;;
30462;SDS011;17256;43.618;25.336;2022-08-30T10:11:24;14.73;;;8.30;;
30462;SDS011;17256;43.618;25.336;2022-08-30T10:17:08;13.63;;;8.73;;
30462;SDS011;17256;43.618;25.336;2022-08-30T10:23:29;13.77;;;8.73;;
30462;SDS011;17256;43.618;25.336;2022-08-30T10:28:14;15.43;;;7.90;;
30462;SDS011;17256;43.618;25.336;2022-08-30T10:31:04;10.17;;;7.50;;
30462;SDS011;17256;43.618;25.336;2022-08-30T10:33:37;12.53;;;7.83;;
30462;SDS011;17256;43.618;25.336;2022-08-30T10:36:10;11.05;;;8.25;;
30462;SDS011;17256;43.618;25.336;2022-08-30T10:38:39;18.30;;;8.57;;
30462;SDS011;17256;43.618;25.336;2022-08-30T10:41:23;13.40;;;8.73;;
30462;SDS011;17256;43.618;25.336;2022-08-30T10:49:04;11.38;;;8.68;;
30462;SDS011;17256;43.618;25.336;2022-08-30T10:56:57;12.55;;;7.95;;
30462;SDS011;17256;43.618;25.336;2022-08-30T10:59:23;14.57;;;7.87;;
30462;SDS011;17256;43.618;25.336;2022-08-30T11:08:48;12.65;;;8.05;;
30462;SDS011;17256;43.618;25.336;2022-08-30T11:11:25;14.60;;;8.95;;
30462;SDS011;17256;43.618;25.336;2022-08-30T11:14:14;18.92;;;8.85;;
30462;SDS011;17256;43.618;25.336;2022-08-30T11:16:42;14.75;;;8.88;;
30462;SDS011;17256;43.618;25.336;2022-08-30T11:19:18;17.65;;;7.47;;
30462;SDS011;17256;43.618;25.336;2022-08-30T11:21:47;16.35;;;7.68;;
30462;SDS011;17256;43.618;25.336;2022-08-30T11:24:31;14.13;;;7.72;;
30462;SDS011;17256;43.618;25.336;2022-08-30T11:27:46;9.90;;;7.38;;
30462;SDS011;17256;43.618;25.336;2022-08-30T11:32:56;15.88;;;7.20;;
30462;SDS011;17256;43.618;25.336;2022-08-30T11:41:13;10.07;;;7.93;;
30462;SDS011;17256;43.618;25.336;2022-08-30T11:43:53;10.43;;;7.53;;
30462;SDS011;17256;43.618;25.336;2022-08-30T11:48:53;14.02;;;7.32;;
30462;SDS011;17256;43.618;25.336;2022-08-30T11:57:15;15.40;;;8.75;;
30462;SDS011;17256;43.618;25.336;2022-08-30T11:59:58;13.45;;;7.30;;
30462;SDS011;17256;43.618;25.336;2022-08-30T12:05:58;11.00;;;7.03;;
30462;SDS011;17256;43.618;25.336;2022-08-30T12:16:08;11.73;;;7.50;;
30462;SDS011;17256;43.618;25.336;2022-08-30T12:21:29;12.90;;;6.53;;
30462;SDS011;17256;43.618;25.336;2022-08-30T12:29:19;17.10;;;7.10;;
30462;SDS011;17256;43.618;25.336;2022-08-30T12:31:56;17.15;;;8.00;;
30462;SDS011;17256;43.618;25.336;2022-08-30T12:37:18;15.07;;;7.15;;
30462;SDS011;17256;43.618;25.336;2022-08-30T12:39:47;10.30;;;6.63;;
30462;SDS011;17256;43.618;25.336;2022-08-30T12:42:27;12.55;;;6.95;;
30462;SDS011;17256;43.618;25.336;2022-08-30T12:44:56;14.35;;;6.50;;
30462;SDS011;17256;43.618;25.336;2022-08-30T12:47:30;15.02;;;6.85;;
30462;SDS011;17256;43.618;25.336;2022-08-30T12:50:06;10.15;;;6.20;;
30462;SDS011;17256;43.618;25.336;2022-08-30T12:52:35;14.02;;;6.25;;
30462;SDS011;17256;43.618;25.336;2022-08-30T13:00:35;13.38;;;6.70;;
30462;SDS011;17256;43.618;25.336;2022-08-30T13:06:02;14.75;;;7.50;;
30462;SDS011;17256;43.618;25.336;2022-08-30T13:08:34;12.68;;;7.53;;
30462;SDS011;17256;43.618;25.336;2022-08-30T13:11:23;10.73;;;6.20;;
30462;SDS011;17256;43.618;25.336;2022-08-30T13:18:51;13.25;;;7.10;;
30462;SDS011;17256;43.618;25.336;2022-08-30T13:21:24;15.50;;;6.07;;
30462;SDS011;17256;43.618;25.336;2022-08-30T13:23:57;13.77;;;6.80;;
30462;SDS011;17256;43.618;25.336;2022-08-30T13:26:25;9.68;;;6.45;;
30462;SDS011;17256;43.618;25.336;2022-08-30T13:28:56;10.95;;;6.57;;
30462;SDS011;17256;43.618;25.336;2022-08-30T13:31:25;9.45;;;6.18;;
30462;SDS011;17256;43.618;25.336;2022-08-30T13:33:51;17.27;;;6.82;;
30462;SDS011;17256;43.618;25.336;2022-08-30T13:36:19;11.30;;;7.47;;
30462;SDS011;17256;43.618;25.336;2022-08-30T13:38:47;11.70;;;6.43;;
30462;SDS011;17256;43.618;25.336;2022-08-30T13:41:14;14.45;;;6.70;;
30462;SDS011;17256;43.618;25.336;2022-08-30T13:43:40;12.65;;;6.63;;
30462;SDS011;17256;43.618;25.336;2022-08-30T13:46:06;18.58;;;6.57;;
30462;SDS011;17256;43.618;25.336;2022-08-30T13:48:33;10.13;;;6.63;;
30462;SDS011;17256;43.618;25.336;2022-08-30T13:50:59;13.20;;;6.28;;
30462;SDS011;17256;43.618;25.336;2022-08-30T13:53:24;7.47;;;6.68;;
30462;SDS011;17256;43.618;25.336;2022-08-30T13:55:50;15.77;;;6.50;;
30462;SDS011;17256;43.618;25.336;2022-08-30T13:58:16;10.20;;;6.43;;
30462;SDS011;17256;43.618;25.336;2022-08-30T14:00:42;9.00;;;6.57;;
30462;SDS011;17256;43.618;25.336;2022-08-30T14:03:10;11.40;;;7.13;;
30462;SDS011;17256;43.618;25.336;2022-08-30T14:05:37;12.98;;;6.47;;
30462;SDS011;17256;43.618;25.336;2022-08-30T14:08:04;14.82;;;7.25;;
30462;SDS011;17256;43.618;25.336;2022-08-30T14:10:31;17.10;;;7.28;;
30462;SDS011;17256;43.618;25.336;2022-08-30T14:12:57;14.55;;;6.40;;
30462;SDS011;17256;43.618;25.336;2022-08-30T14:15:38;13.48;;;6.45;;
30462;SDS011;17256;43.618;25.336;2022-08-30T14:18:05;19.70;;;7.30;;
30462;SDS011;17256;43.618;25.336;2022-08-30T14:20:32;15.50;;;6.35;;
30462;SDS011;17256;43.618;25.336;2022-08-30T14:22:59;15.15;;;7.07;;
30462;SDS011;17256;43.618;25.336;2022-08-30T14:25:25;13.38;;;6.97;;
30462;SDS011;17256;43.618;25.336;2022-08-30T14:27:53;13.95;;;6.10;;
30462;SDS011;17256;43.618;25.336;2022-08-30T14:30:20;11.13;;;6.88;;
30462;SDS011;17256;43.618;25.336;2022-08-30T14:32:46;12.27;;;6.47;;
30462;SDS011;17256;43.618;25.336;2022-08-30T14:35:11;10.95;;;6.38;;
30462;SDS011;17256;43.618;25.336;2022-08-30T14:37:37;13.35;;;7.15;;
30462;SDS011;17256;43.618;25.336;2022-08-30T14:40:03;11.23;;;6.85;;
30462;SDS011;17256;43.618;25.336;2022-08-30T14:45:14;10.90;;;7.60;;
30462;SDS011;17256;43.618;25.336;2022-08-30T14:47:39;11.55;;;7.70;;
30462;SDS011;17256;43.618;25.336;2022-08-30T14:50:05;8.68;;;7.65;;
30462;SDS011;17256;43.618;25.336;2022-08-30T14:52:31;10.88;;;8.32;;
30462;SDS011;17256;43.618;25.336;2022-08-30T14:54:57;8.88;;;7.85;;
30462;SDS011;17256;43.618;25.336;2022-08-30T14:57:25;12.90;;;8.13;;
30462;SDS011;17256;43.618;25.336;2022-08-30T14:59:50;11.93;;;8.98;;
30462;SDS011;17256;43.618;25.336;2022-08-30T15:02:18;10.85;;;8.20;;
30462;SDS011;17256;43.618;25.336;2022-08-30T15:04:44;12.23;;;8.13;;
30462;SDS011;17256;43.618;25.336;2022-08-30T15:07:09;19.23;;;8.55;;
30462;SDS011;17256;43.618;25.336;2022-08-30T15:09:40;11.83;;;8.70;;
30462;SDS011;17256;43.618;25.336;2022-08-30T15:12:06;16.50;;;9.07;;
30462;SDS011;17256;43.618;25.336;2022-08-30T15:14:32;12.03;;;8.80;;
30462;SDS011;17256;43.618;25.336;2022-08-30T15:17:08;13.50;;;9.90;;
30462;SDS011;17256;43.618;25.336;2022-08-30T15:19:34;17.87;;;9.40;;
30462;SDS011;17256;43.618;25.336;2022-08-30T15:22:01;10.13;;;8.63;;
30462;SDS011;17256;43.618;25.336;2022-08-30T15:24:29;14.03;;;8.73;;
30462;SDS011;17256;43.618;25.336;2022-08-30T15:26:55;10.80;;;9.70;;
30462;SDS011;17256;43.618;25.336;2022-08-30T15:29:22;13.03;;;9.17;;
30462;SDS011;17256;43.618;25.336;2022-08-30T15:31:48;10.03;;;8.93;;
30462;SDS011;17256;43.618;25.336;2022-08-30T15:34:15;11.13;;;9.40;;
30462;SDS011;17256;43.618;25.336;2022-08-30T15:36:43;11.97;;;9.37;;
30462;SDS011;17256;43.618;25.336;2022-08-30T15:39:11;16.67;;;9.03;;
30462;SDS011;17256;43.618;25.336;2022-08-30T15:41:37;14.60;;;10.20;;
30462;SDS011;17256;43.618;25.336;2022-08-30T15:44:03;12.40;;;8.93;;
30462;SDS011;17256;43.618;25.336;2022-08-30T15:46:36;14.10;;;9.80;;
30462;SDS011;17256;43.618;25.336;2022-08-30T15:49:12;13.93;;;9.03;;
30462;SDS011;17256;43.618;25.336;2022-08-30T15:51:40;11.40;;;9.27;;
30462;SDS011;17256;43.618;25.336;2022-08-30T15:54:08;10.93;;;8.60;;
30462;SDS011;17256;43.618;25.336;2022-08-30T15:56:35;12.13;;;8.93;;
30462;SDS011;17256;43.618;25.336;2022-08-30T15:59:00;10.90;;;9.50;;
30462;SDS011;17256;43.618;25.336;2022-08-30T16:01:26;15.83;;;8.80;;
30462;SDS011;17256;43.618;25.336;2022-08-30T16:03:51;14.77;;;9.93;;
30462;SDS011;17256;43.618;25.336;2022-08-30T16:06:19;15.17;;;8.80;;
30462;SDS011;17256;43.618;25.336;2022-08-30T16:08:47;14.73;;;9.43;;
30462;SDS011;17256;43.618;25.336;2022-08-30T16:11:14;10.77;;;7.80;;
30462;SDS011;17256;43.618;25.336;2022-08-30T16:13:41;18.07;;;9.27;;
30462;SDS011;17256;43.618;25.336;2022-08-30T16:16:07;10.90;;;8.83;;
30462;SDS011;17256;43.618;25.336;2022-08-30T16:18:34;10.93;;;8.07;;
30462;SDS011;17256;43.618;25.336;2022-08-30T16:21:10;12.20;;;9.53;;
30462;SDS011;17256;43.618;25.336;2022-08-30T16:23:39;9.93;;;8.70;;
30462;SDS011;17256;43.618;25.336;2022-08-30T16:29:24;13.33;;;8.63;;
30462;SDS011;17256;43.618;25.336;2022-08-30T16:31:50;11.30;;;9.13;;
30462;SDS011;17256;43.618;25.336;2022-08-30T16:38:09;10.87;;;8.97;;
30462;SDS011;17256;43.618;25.336;2022-08-30T16:40:35;13.03;;;9.00;;
30462;SDS011;17256;43.618;25.336;2022-08-30T16:43:01;11.63;;;8.30;;
30462;SDS011;17256;43.618;25.336;2022-08-30T16:45:27;12.10;;;9.20;;
30462;SDS011;17256;43.618;25.336;2022-08-30T16:47:53;12.80;;;8.50;;
30462;SDS011;17256;43.618;25.336;2022-08-30T16:50:19;12.23;;;8.60;;
30462;SDS011;17256;43.618;25.336;2022-08-30T16:52:47;10.33;;;8.20;;
30462;SDS011;17256;43.618;25.336;2022-08-30T16:55:14;14.47;;;9.47;;
30462;SDS011;17256;43.618;25.336;2022-08-30T16:57:40;14.17;;;9.03;;
30462;SDS011;17256;43.618;25.336;2022-08-30T17:00:06;10.00;;;9.00;;
30462;SDS011;17256;43.618;25.336;2022-08-30T17:02:33;11.90;;;8.30;;
30462;SDS011;17256;43.618;25.336;2022-08-30T17:04:59;9.77;;;8.77;;
30462;SDS011;17256;43.618;25.336;2022-08-30T17:07:24;11.00;;;8.47;;
30462;SDS011;17256;43.618;25.336;2022-08-30T17:13:45;12.17;;;8.57;;
30462;SDS011;17256;43.618;25.336;2022-08-30T17:16:10;13.27;;;9.13;;
30462;SDS011;17256;43.618;25.336;2022-08-30T17:18:36;11.50;;;9.13;;
30462;SDS011;17256;43.618;25.336;2022-08-30T17:21:02;9.80;;;8.90;;
30462;SDS011;17256;43.618;25.336;2022-08-30T17:23:28;9.27;;;8.43;;
30462;SDS011;17256;43.618;25.336;2022-08-30T17:25:54;10.73;;;9.30;;
30462;SDS011;17256;43.618;25.336;2022-08-30T17:28:21;10.63;;;8.90;;
30462;SDS011;17256;43.618;25.336;2022-08-30T17:30:47;12.40;;;9.13;;
30462;SDS011;17256;43.618;25.336;2022-08-30T17:36:10;10.37;;;8.87;;
30462;SDS011;17256;43.618;25.336;2022-08-30T17:38:35;10.60;;;7.87;;
30462;SDS011;17256;43.618;25.336;2022-08-30T17:41:03;9.67;;;8.77;;
30462;SDS011;17256;43.618;25.336;2022-08-30T17:43:31;10.37;;;9.27;;
30462;SDS011;17256;43.618;25.336;2022-08-30T17:49:12;10.47;;;8.83;;
30462;SDS011;17256;43.618;25.336;2022-08-30T17:51:39;14.27;;;8.57;;
30462;SDS011;17256;43.618;25.336;2022-08-30T17:57:18;9.40;;;8.50;;
30462;SDS011;17256;43.618;25.336;2022-08-30T17:59:44;9.00;;;8.10;;
30462;SDS011;17256;43.618;25.336;2022-08-30T18:02:38;8.50;;;7.60;;
30462;SDS011;17256;43.618;25.336;2022-08-30T18:36:41;7.83;;;7.03;;
30462;SDS011;17256;43.618;25.336;2022-08-30T19:02:41;9.27;;;7.77;;
30462;SDS011;17256;43.618;25.336;2022-08-30T19:15:42;9.20;;;8.40;;
30462;SDS011;17256;43.618;25.336;2022-08-30T21:08:54;12.97;;;9.50;;
30462;SDS011;17256;43.618;25.336;2022-08-30T21:18:08;11.33;;;10.23;;
30462;SDS011;17256;43.618;25.336;2022-08-30T21:53:13;11.83;;;10.63;;
30462;SDS011;17256;43.618;25.336;2022-08-30T22:19:51;12.70;;;9.57;;
30462;SDS011;17256;43.618;25.336;2022-08-30T22:29:42;15.57;;;8.87;;
